sensor_id;sensor_type;location;lat;lon;timestamp;P1;durP1;ratioP1;P2;durP2;ratioP2
8480;SDS011;4277;51.354;6.740;2022-08-02T00:01:30;4.25;;;2.70;;
8480;SDS011;4277;51.354;6.740;2022-08-02T00:03:56;4.78;;;2.63;;
8480;SDS011;4277;51.354;6.740;2022-08-02T00:06:22;6.03;;;2.75;;
8480;SDS011;4277;51.354;6.740;2022-08-02T00:08:48;3.53;;;2.55;;
8480;SDS011;4277;51.354;6.740;2022-08-02T00:11:14;2.75;;;2.42;;
8480;SDS011;4277;51.354;6.740;2022-08-02T00:13:40;4.63;;;2.53;;
8480;SDS011;4277;51.354;6.740;2022-08-02T00:16:06;4.93;;;2.63;;
8480;SDS011;4277;51.354;6.740;2022-08-02T00:18:32;3.65;;;2.55;;
8480;SDS011;4277;51.354;6.740;2022-08-02T00:20:58;4.47;;;2.92;;
8480;SDS011;4277;51.354;6.740;2022-08-02T00:23:24;4.10;;;2.67;;
8480;SDS011;4277;51.354;6.740;2022-08-02T00:25:50;4.28;;;2.70;;
8480;SDS011;4277;51.354;6.740;2022-08-02T00:28:16;3.70;;;2.53;;
8480;SDS011;4277;51.354;6.740;2022-08-02T00:30:42;3.65;;;2.67;;
8480;SDS011;4277;51.354;6.740;2022-08-02T00:33:07;6.07;;;3.00;;
8480;SDS011;4277;51.354;6.740;2022-08-02T00:35:34;3.85;;;2.40;;
8480;SDS011;4277;51.354;6.740;2022-08-02T00:38:00;3.15;;;2.30;;
8480;SDS011;4277;51.354;6.740;2022-08-02T00:40:27;3.38;;;2.65;;
8480;SDS011;4277;51.354;6.740;2022-08-02T00:43:00;3.35;;;2.50;;
8480;SDS011;4277;51.354;6.740;2022-08-02T00:45:28;3.33;;;2.50;;
8480;SDS011;4277;51.354;6.740;2022-08-02T00:47:54;4.53;;;2.70;;
8480;SDS011;4277;51.354;6.740;2022-08-02T00:50:20;5.27;;;2.70;;
8480;SDS011;4277;51.354;6.740;2022-08-02T00:52:46;5.13;;;2.80;;
8480;SDS011;4277;51.354;6.740;2022-08-02T00:55:11;4.97;;;2.83;;
8480;SDS011;4277;51.354;6.740;2022-08-02T00:57:37;5.97;;;2.58;;
8480;SDS011;4277;51.354;6.740;2022-08-02T01:00:04;3.07;;;2.40;;
8480;SDS011;4277;51.354;6.740;2022-08-02T01:02:30;4.43;;;2.72;;
8480;SDS011;4277;51.354;6.740;2022-08-02T01:04:56;3.85;;;2.95;;
8480;SDS011;4277;51.354;6.740;2022-08-02T01:07:22;6.33;;;2.83;;
8480;SDS011;4277;51.354;6.740;2022-08-02T01:09:48;5.33;;;2.90;;
8480;SDS011;4277;51.354;6.740;2022-08-02T01:12:14;3.57;;;2.60;;
8480;SDS011;4277;51.354;6.740;2022-08-02T01:14:41;3.83;;;2.50;;
8480;SDS011;4277;51.354;6.740;2022-08-02T01:17:12;4.20;;;2.60;;
8480;SDS011;4277;51.354;6.740;2022-08-02T01:27:10;4.80;;;2.73;;
8480;SDS011;4277;51.354;6.740;2022-08-02T01:29:44;3.17;;;2.63;;
8480;SDS011;4277;51.354;6.740;2022-08-02T01:32:12;5.10;;;2.80;;
8480;SDS011;4277;51.354;6.740;2022-08-02T01:39:32;4.70;;;2.70;;
8480;SDS011;4277;51.354;6.740;2022-08-02T01:41:58;2.80;;;2.60;;
8480;SDS011;4277;51.354;6.740;2022-08-02T01:44:26;5.20;;;2.90;;
8480;SDS011;4277;51.354;6.740;2022-08-02T01:46:55;4.70;;;2.60;;
8480;SDS011;4277;51.354;6.740;2022-08-02T01:49:21;4.93;;;2.93;;
8480;SDS011;4277;51.354;6.740;2022-08-02T01:51:48;4.93;;;2.90;;
8480;SDS011;4277;51.354;6.740;2022-08-02T01:54:33;3.93;;;2.70;;
8480;SDS011;4277;51.354;6.740;2022-08-02T01:57:01;5.93;;;3.03;;
8480;SDS011;4277;51.354;6.740;2022-08-02T01:59:28;3.50;;;2.73;;
8480;SDS011;4277;51.354;6.740;2022-08-02T02:01:56;6.10;;;3.07;;
8480;SDS011;4277;51.354;6.740;2022-08-02T02:04:23;4.57;;;2.80;;
8480;SDS011;4277;51.354;6.740;2022-08-02T02:06:49;4.47;;;2.93;;
8480;SDS011;4277;51.354;6.740;2022-08-02T02:09:15;4.33;;;2.70;;
8480;SDS011;4277;51.354;6.740;2022-08-02T02:11:42;3.73;;;2.70;;
8480;SDS011;4277;51.354;6.740;2022-08-02T02:14:08;5.03;;;3.03;;
8480;SDS011;4277;51.354;6.740;2022-08-02T02:16:36;2.93;;;2.40;;
8480;SDS011;4277;51.354;6.740;2022-08-02T02:19:02;4.80;;;2.70;;
8480;SDS011;4277;51.354;6.740;2022-08-02T02:21:28;2.70;;;2.50;;
8480;SDS011;4277;51.354;6.740;2022-08-02T02:23:54;2.93;;;2.63;;
8480;SDS011;4277;51.354;6.740;2022-08-02T02:26:20;4.00;;;2.70;;
8480;SDS011;4277;51.354;6.740;2022-08-02T02:28:48;5.20;;;2.77;;
8480;SDS011;4277;51.354;6.740;2022-08-02T02:31:17;4.07;;;2.80;;
8480;SDS011;4277;51.354;6.740;2022-08-02T02:34:07;3.07;;;2.40;;
8480;SDS011;4277;51.354;6.740;2022-08-02T02:36:30;4.13;;;2.77;;
8480;SDS011;4277;51.354;6.740;2022-08-02T02:38:58;4.77;;;2.70;;
8480;SDS011;4277;51.354;6.740;2022-08-02T02:41:26;3.43;;;2.67;;
8480;SDS011;4277;51.354;6.740;2022-08-02T02:43:53;5.63;;;3.10;;
8480;SDS011;4277;51.354;6.740;2022-08-02T02:46:20;5.37;;;2.90;;
8480;SDS011;4277;51.354;6.740;2022-08-02T02:48:48;4.03;;;2.90;;
8480;SDS011;4277;51.354;6.740;2022-08-02T02:51:15;3.50;;;2.70;;
8480;SDS011;4277;51.354;6.740;2022-08-02T02:53:41;3.93;;;2.63;;
8480;SDS011;4277;51.354;6.740;2022-08-02T02:56:08;4.07;;;2.90;;
8480;SDS011;4277;51.354;6.740;2022-08-02T02:58:36;5.03;;;2.90;;
8480;SDS011;4277;51.354;6.740;2022-08-02T03:01:02;4.30;;;2.80;;
8480;SDS011;4277;51.354;6.740;2022-08-02T03:03:47;4.13;;;2.70;;
8480;SDS011;4277;51.354;6.740;2022-08-02T03:06:14;3.67;;;2.77;;
8480;SDS011;4277;51.354;6.740;2022-08-02T03:08:40;4.33;;;2.63;;
8480;SDS011;4277;51.354;6.740;2022-08-02T03:11:07;3.87;;;2.63;;
8480;SDS011;4277;51.354;6.740;2022-08-02T03:13:33;3.67;;;2.80;;
8480;SDS011;4277;51.354;6.740;2022-08-02T03:15:59;6.40;;;2.63;;
8480;SDS011;4277;51.354;6.740;2022-08-02T03:18:30;3.60;;;2.50;;
8480;SDS011;4277;51.354;6.740;2022-08-02T03:21:00;4.63;;;2.70;;
8480;SDS011;4277;51.354;6.740;2022-08-02T03:23:26;4.70;;;2.80;;
8480;SDS011;4277;51.354;6.740;2022-08-02T03:25:52;3.17;;;2.63;;
8480;SDS011;4277;51.354;6.740;2022-08-02T03:28:18;6.43;;;3.13;;
8480;SDS011;4277;51.354;6.740;2022-08-02T03:30:44;3.77;;;2.53;;
8480;SDS011;4277;51.354;6.740;2022-08-02T03:33:10;6.77;;;2.70;;
8480;SDS011;4277;51.354;6.740;2022-08-02T03:35:36;4.83;;;3.00;;
8480;SDS011;4277;51.354;6.740;2022-08-02T03:38:03;3.37;;;2.50;;
8480;SDS011;4277;51.354;6.740;2022-08-02T03:40:29;4.30;;;2.87;;
8480;SDS011;4277;51.354;6.740;2022-08-02T03:42:56;3.83;;;3.20;;
8480;SDS011;4277;51.354;6.740;2022-08-02T03:45:23;3.50;;;3.20;;
8480;SDS011;4277;51.354;6.740;2022-08-02T03:47:50;10.70;;;3.03;;
8480;SDS011;4277;51.354;6.740;2022-08-02T03:50:16;5.40;;;3.33;;
8480;SDS011;4277;51.354;6.740;2022-08-02T03:52:43;5.73;;;2.70;;
8480;SDS011;4277;51.354;6.740;2022-08-02T03:55:10;4.83;;;3.23;;
8480;SDS011;4277;51.354;6.740;2022-08-02T03:57:37;7.50;;;3.07;;
8480;SDS011;4277;51.354;6.740;2022-08-02T04:00:04;6.97;;;3.30;;
8480;SDS011;4277;51.354;6.740;2022-08-02T04:02:30;3.30;;;3.00;;
8480;SDS011;4277;51.354;6.740;2022-08-02T04:04:56;4.57;;;2.87;;
8480;SDS011;4277;51.354;6.740;2022-08-02T04:07:22;5.17;;;3.00;;
8480;SDS011;4277;51.354;6.740;2022-08-02T04:09:48;7.43;;;3.30;;
8480;SDS011;4277;51.354;6.740;2022-08-02T04:12:14;6.27;;;3.10;;
8480;SDS011;4277;51.354;6.740;2022-08-02T04:14:39;4.03;;;2.90;;
8480;SDS011;4277;51.354;6.740;2022-08-02T04:17:08;4.17;;;3.00;;
8480;SDS011;4277;51.354;6.740;2022-08-02T04:19:49;5.10;;;3.23;;
8480;SDS011;4277;51.354;6.740;2022-08-02T04:22:18;3.97;;;3.10;;
8480;SDS011;4277;51.354;6.740;2022-08-02T04:24:46;7.33;;;3.40;;
8480;SDS011;4277;51.354;6.740;2022-08-02T04:27:14;4.97;;;3.27;;
8480;SDS011;4277;51.354;6.740;2022-08-02T04:29:40;3.67;;;3.03;;
8480;SDS011;4277;51.354;6.740;2022-08-02T04:32:06;5.80;;;3.60;;
8480;SDS011;4277;51.354;6.740;2022-08-02T04:34:33;4.17;;;3.63;;
8480;SDS011;4277;51.354;6.740;2022-08-02T04:36:59;6.40;;;4.03;;
8480;SDS011;4277;51.354;6.740;2022-08-02T04:39:25;6.70;;;3.50;;
8480;SDS011;4277;51.354;6.740;2022-08-02T04:41:51;8.27;;;3.80;;
8480;SDS011;4277;51.354;6.740;2022-08-02T04:44:17;6.20;;;3.70;;
8480;SDS011;4277;51.354;6.740;2022-08-02T04:46:43;6.00;;;3.80;;
8480;SDS011;4277;51.354;6.740;2022-08-02T04:49:10;4.70;;;3.60;;
8480;SDS011;4277;51.354;6.740;2022-08-02T04:51:36;6.10;;;4.00;;
8480;SDS011;4277;51.354;6.740;2022-08-02T04:54:03;4.17;;;3.50;;
8480;SDS011;4277;51.354;6.740;2022-08-02T04:56:29;6.20;;;3.63;;
8480;SDS011;4277;51.354;6.740;2022-08-02T04:58:55;6.93;;;3.80;;
8480;SDS011;4277;51.354;6.740;2022-08-02T05:01:21;7.17;;;4.03;;
8480;SDS011;4277;51.354;6.740;2022-08-02T05:03:47;6.37;;;3.43;;
8480;SDS011;4277;51.354;6.740;2022-08-02T05:06:13;9.63;;;3.90;;
8480;SDS011;4277;51.354;6.740;2022-08-02T05:08:39;6.03;;;3.70;;
8480;SDS011;4277;51.354;6.740;2022-08-02T05:11:05;6.27;;;3.77;;
8480;SDS011;4277;51.354;6.740;2022-08-02T05:13:30;6.07;;;4.20;;
8480;SDS011;4277;51.354;6.740;2022-08-02T05:15:56;5.83;;;3.87;;
8480;SDS011;4277;51.354;6.740;2022-08-02T05:18:25;5.37;;;3.97;;
8480;SDS011;4277;51.354;6.740;2022-08-02T05:20:52;5.77;;;5.00;;
8480;SDS011;4277;51.354;6.740;2022-08-02T05:23:18;8.73;;;5.00;;
8480;SDS011;4277;51.354;6.740;2022-08-02T05:25:44;8.07;;;5.47;;
8480;SDS011;4277;51.354;6.740;2022-08-02T05:28:10;7.40;;;5.73;;
8480;SDS011;4277;51.354;6.740;2022-08-02T05:30:36;8.20;;;5.40;;
8480;SDS011;4277;51.354;6.740;2022-08-02T05:33:02;7.77;;;6.10;;
8480;SDS011;4277;51.354;6.740;2022-08-02T05:35:29;10.77;;;6.50;;
8480;SDS011;4277;51.354;6.740;2022-08-02T05:37:55;9.33;;;7.20;;
8480;SDS011;4277;51.354;6.740;2022-08-02T05:40:21;11.63;;;6.60;;
8480;SDS011;4277;51.354;6.740;2022-08-02T05:42:47;9.30;;;6.90;;
8480;SDS011;4277;51.354;6.740;2022-08-02T05:45:13;8.17;;;6.27;;
8480;SDS011;4277;51.354;6.740;2022-08-02T05:47:39;9.93;;;6.83;;
8480;SDS011;4277;51.354;6.740;2022-08-02T05:50:05;10.37;;;7.40;;
8480;SDS011;4277;51.354;6.740;2022-08-02T05:52:51;7.30;;;6.27;;
8480;SDS011;4277;51.354;6.740;2022-08-02T05:55:26;9.37;;;7.17;;
8480;SDS011;4277;51.354;6.740;2022-08-02T05:58:13;10.70;;;7.87;;
8480;SDS011;4277;51.354;6.740;2022-08-02T06:00:42;8.60;;;7.80;;
8480;SDS011;4277;51.354;6.740;2022-08-02T06:08:36;14.63;;;8.43;;
8480;SDS011;4277;51.354;6.740;2022-08-02T06:11:02;9.60;;;7.80;;
8480;SDS011;4277;51.354;6.740;2022-08-02T06:13:30;11.85;;;7.68;;
8480;SDS011;4277;51.354;6.740;2022-08-02T06:15:56;10.38;;;7.95;;
8480;SDS011;4277;51.354;6.740;2022-08-02T06:18:24;8.95;;;7.43;;
8480;SDS011;4277;51.354;6.740;2022-08-02T06:20:51;7.72;;;6.22;;
8480;SDS011;4277;51.354;6.740;2022-08-02T06:23:17;11.43;;;7.32;;
8480;SDS011;4277;51.354;6.740;2022-08-02T06:25:46;9.60;;;6.65;;
8480;SDS011;4277;51.354;6.740;2022-08-02T06:28:14;9.87;;;6.97;;
8480;SDS011;4277;51.354;6.740;2022-08-02T06:30:41;10.13;;;6.90;;
8480;SDS011;4277;51.354;6.740;2022-08-02T06:33:08;9.02;;;7.00;;
8480;SDS011;4277;51.354;6.740;2022-08-02T06:35:51;8.88;;;7.70;;
8480;SDS011;4277;51.354;6.740;2022-08-02T06:38:26;9.23;;;6.70;;
8480;SDS011;4277;51.354;6.740;2022-08-02T06:40:55;10.60;;;7.38;;
8480;SDS011;4277;51.354;6.740;2022-08-02T06:45:51;8.85;;;7.50;;
8480;SDS011;4277;51.354;6.740;2022-08-02T06:48:17;9.88;;;7.47;;
8480;SDS011;4277;51.354;6.740;2022-08-02T06:50:43;9.55;;;6.57;;
8480;SDS011;4277;51.354;6.740;2022-08-02T06:53:10;10.75;;;8.00;;
8480;SDS011;4277;51.354;6.740;2022-08-02T06:55:36;9.30;;;7.47;;
8480;SDS011;4277;51.354;6.740;2022-08-02T06:58:02;11.05;;;7.80;;
8480;SDS011;4277;51.354;6.740;2022-08-02T07:00:28;11.02;;;8.00;;
8480;SDS011;4277;51.354;6.740;2022-08-02T07:02:55;9.63;;;7.85;;
8480;SDS011;4277;51.354;6.740;2022-08-02T07:05:21;11.70;;;8.50;;
8480;SDS011;4277;51.354;6.740;2022-08-02T07:07:47;8.50;;;7.60;;
8480;SDS011;4277;51.354;6.740;2022-08-02T07:10:13;8.43;;;7.50;;
8480;SDS011;4277;51.354;6.740;2022-08-02T07:12:39;11.43;;;8.32;;
8480;SDS011;4277;51.354;6.740;2022-08-02T07:15:06;9.13;;;7.40;;
8480;SDS011;4277;51.354;6.740;2022-08-02T07:17:32;8.85;;;7.70;;
8480;SDS011;4277;51.354;6.740;2022-08-02T07:19:59;10.98;;;7.82;;
8480;SDS011;4277;51.354;6.740;2022-08-02T07:22:25;12.07;;;7.65;;
8480;SDS011;4277;51.354;6.740;2022-08-02T07:24:52;9.85;;;7.53;;
8480;SDS011;4277;51.354;6.740;2022-08-02T07:27:19;10.25;;;7.30;;
8480;SDS011;4277;51.354;6.740;2022-08-02T07:29:46;9.23;;;6.38;;
8480;SDS011;4277;51.354;6.740;2022-08-02T07:32:15;9.55;;;5.97;;
8480;SDS011;4277;51.354;6.740;2022-08-02T07:34:42;8.63;;;5.70;;
8480;SDS011;4277;51.354;6.740;2022-08-02T07:37:08;6.78;;;6.10;;
8480;SDS011;4277;51.354;6.740;2022-08-02T07:39:34;9.40;;;5.70;;
8480;SDS011;4277;51.354;6.740;2022-08-02T07:42:00;13.77;;;5.60;;
8480;SDS011;4277;51.354;6.740;2022-08-02T07:44:26;7.22;;;5.15;;
8480;SDS011;4277;51.354;6.740;2022-08-02T07:46:56;8.27;;;5.70;;
8480;SDS011;4277;51.354;6.740;2022-08-02T07:49:22;6.35;;;5.28;;
8480;SDS011;4277;51.354;6.740;2022-08-02T07:51:48;10.10;;;5.65;;
8480;SDS011;4277;51.354;6.740;2022-08-02T07:54:14;8.13;;;5.20;;
8480;SDS011;4277;51.354;6.740;2022-08-02T07:56:40;10.38;;;5.22;;
8480;SDS011;4277;51.354;6.740;2022-08-02T07:59:06;7.97;;;4.43;;
8480;SDS011;4277;51.354;6.740;2022-08-02T08:01:34;8.68;;;4.95;;
8480;SDS011;4277;51.354;6.740;2022-08-02T08:04:00;6.68;;;5.00;;
8480;SDS011;4277;51.354;6.740;2022-08-02T08:06:26;6.28;;;4.57;;
8480;SDS011;4277;51.354;6.740;2022-08-02T08:08:52;8.27;;;4.30;;
8480;SDS011;4277;51.354;6.740;2022-08-02T08:11:17;10.10;;;4.60;;
8480;SDS011;4277;51.354;6.740;2022-08-02T08:13:43;7.72;;;4.57;;
8480;SDS011;4277;51.354;6.740;2022-08-02T08:16:09;7.40;;;4.38;;
8480;SDS011;4277;51.354;6.740;2022-08-02T08:18:36;7.60;;;4.30;;
8480;SDS011;4277;51.354;6.740;2022-08-02T08:21:02;6.18;;;4.20;;
8480;SDS011;4277;51.354;6.740;2022-08-02T08:23:28;7.78;;;4.72;;
8480;SDS011;4277;51.354;6.740;2022-08-02T08:25:53;5.10;;;3.95;;
8480;SDS011;4277;51.354;6.740;2022-08-02T08:28:19;6.22;;;4.70;;
8480;SDS011;4277;51.354;6.740;2022-08-02T08:30:45;6.07;;;4.07;;
8480;SDS011;4277;51.354;6.740;2022-08-02T08:33:12;7.28;;;4.43;;
8480;SDS011;4277;51.354;6.740;2022-08-02T08:35:38;7.75;;;5.30;;
8480;SDS011;4277;51.354;6.740;2022-08-02T08:38:04;6.28;;;5.05;;
8480;SDS011;4277;51.354;6.740;2022-08-02T08:40:30;6.82;;;4.57;;
8480;SDS011;4277;51.354;6.740;2022-08-02T08:42:56;8.23;;;4.38;;
8480;SDS011;4277;51.354;6.740;2022-08-02T08:45:21;5.78;;;5.20;;
8480;SDS011;4277;51.354;6.740;2022-08-02T08:47:50;6.88;;;5.10;;
8480;SDS011;4277;51.354;6.740;2022-08-02T08:50:19;6.47;;;3.80;;
8480;SDS011;4277;51.354;6.740;2022-08-02T08:53:06;7.60;;;4.00;;
8480;SDS011;4277;51.354;6.740;2022-08-02T08:55:33;7.13;;;3.85;;
8480;SDS011;4277;51.354;6.740;2022-08-02T08:57:59;6.78;;;3.58;;
8480;SDS011;4277;51.354;6.740;2022-08-02T09:00:26;9.60;;;3.33;;
8480;SDS011;4277;51.354;6.740;2022-08-02T09:02:55;5.82;;;3.35;;
8480;SDS011;4277;51.354;6.740;2022-08-02T09:05:21;5.18;;;3.35;;
8480;SDS011;4277;51.354;6.740;2022-08-02T09:07:49;4.70;;;3.20;;
8480;SDS011;4277;51.354;6.740;2022-08-02T09:15:35;5.13;;;3.00;;
8480;SDS011;4277;51.354;6.740;2022-08-02T09:18:04;4.72;;;3.10;;
8480;SDS011;4277;51.354;6.740;2022-08-02T09:20:34;6.35;;;3.17;;
8480;SDS011;4277;51.354;6.740;2022-08-02T09:23:15;5.53;;;3.50;;
8480;SDS011;4277;51.354;6.740;2022-08-02T09:25:42;4.20;;;3.00;;
8480;SDS011;4277;51.354;6.740;2022-08-02T09:28:26;4.32;;;3.35;;
8480;SDS011;4277;51.354;6.740;2022-08-02T09:30:58;6.15;;;3.45;;
8480;SDS011;4277;51.354;6.740;2022-08-02T09:33:29;6.82;;;2.80;;
8480;SDS011;4277;51.354;6.740;2022-08-02T09:35:58;7.68;;;3.20;;
8480;SDS011;4277;51.354;6.740;2022-08-02T09:38:25;6.22;;;2.90;;
8480;SDS011;4277;51.354;6.740;2022-08-02T09:40:52;6.85;;;2.97;;
8480;SDS011;4277;51.354;6.740;2022-08-02T09:43:18;7.05;;;3.42;;
8480;SDS011;4277;51.354;6.740;2022-08-02T09:45:44;6.30;;;3.03;;
8480;SDS011;4277;51.354;6.740;2022-08-02T09:48:10;8.18;;;2.80;;
8480;SDS011;4277;51.354;6.740;2022-08-02T09:50:36;5.70;;;3.03;;
8480;SDS011;4277;51.354;6.740;2022-08-02T09:53:04;5.45;;;2.60;;
8480;SDS011;4277;51.354;6.740;2022-08-02T09:55:34;5.10;;;2.65;;
8480;SDS011;4277;51.354;6.740;2022-08-02T09:58:15;6.00;;;2.50;;
8480;SDS011;4277;51.354;6.740;2022-08-02T10:00:54;7.57;;;3.03;;
8480;SDS011;4277;51.354;6.740;2022-08-02T10:03:20;3.58;;;2.60;;
8480;SDS011;4277;51.354;6.740;2022-08-02T10:05:47;6.25;;;2.65;;
8480;SDS011;4277;51.354;6.740;2022-08-02T10:08:20;4.80;;;2.50;;
8480;SDS011;4277;51.354;6.740;2022-08-02T10:10:46;4.45;;;2.40;;
8480;SDS011;4277;51.354;6.740;2022-08-02T10:13:12;6.05;;;2.65;;
8480;SDS011;4277;51.354;6.740;2022-08-02T10:15:39;6.55;;;2.70;;
8480;SDS011;4277;51.354;6.740;2022-08-02T10:18:05;3.80;;;2.25;;
8480;SDS011;4277;51.354;6.740;2022-08-02T10:20:32;2.75;;;2.10;;
8480;SDS011;4277;51.354;6.740;2022-08-02T10:23:04;5.53;;;2.00;;
8480;SDS011;4277;51.354;6.740;2022-08-02T10:25:32;3.20;;;2.20;;
8480;SDS011;4277;51.354;6.740;2022-08-02T10:28:00;3.05;;;1.75;;
8480;SDS011;4277;51.354;6.740;2022-08-02T10:30:26;3.47;;;1.77;;
8480;SDS011;4277;51.354;6.740;2022-08-02T10:32:53;4.15;;;1.98;;
8480;SDS011;4277;51.354;6.740;2022-08-02T10:35:21;3.38;;;1.90;;
8480;SDS011;4277;51.354;6.740;2022-08-02T10:37:49;4.18;;;2.13;;
8480;SDS011;4277;51.354;6.740;2022-08-02T10:40:18;6.13;;;2.00;;
8480;SDS011;4277;51.354;6.740;2022-08-02T10:42:56;1.60;;;1.50;;
8480;SDS011;4277;51.354;6.740;2022-08-02T10:45:24;2.38;;;1.80;;
8480;SDS011;4277;51.354;6.740;2022-08-02T10:47:57;2.85;;;1.90;;
8480;SDS011;4277;51.354;6.740;2022-08-02T10:51:01;2.55;;;1.98;;
8480;SDS011;4277;51.354;6.740;2022-08-02T10:53:23;2.42;;;2.10;;
8480;SDS011;4277;51.354;6.740;2022-08-02T10:55:54;5.25;;;2.00;;
8480;SDS011;4277;51.354;6.740;2022-08-02T10:58:25;5.15;;;2.05;;
8480;SDS011;4277;51.354;6.740;2022-08-02T11:00:52;4.70;;;2.10;;
8480;SDS011;4277;51.354;6.740;2022-08-02T11:06:09;2.72;;;1.90;;
8480;SDS011;4277;51.354;6.740;2022-08-02T11:08:38;2.47;;;1.80;;
8480;SDS011;4277;51.354;6.740;2022-08-02T11:13:40;3.70;;;1.80;;
8480;SDS011;4277;51.354;6.740;2022-08-02T11:19:20;5.03;;;1.77;;
8480;SDS011;4277;51.354;6.740;2022-08-02T11:21:59;2.60;;;1.65;;
8480;SDS011;4277;51.354;6.740;2022-08-02T11:24:36;2.85;;;1.83;;
8480;SDS011;4277;51.354;6.740;2022-08-02T11:27:04;3.90;;;1.90;;
8480;SDS011;4277;51.354;6.740;2022-08-02T11:29:38;2.33;;;1.60;;
8480;SDS011;4277;51.354;6.740;2022-08-02T11:32:14;3.63;;;1.80;;
8480;SDS011;4277;51.354;6.740;2022-08-02T11:34:44;2.83;;;1.90;;
8480;SDS011;4277;51.354;6.740;2022-08-02T11:37:12;2.80;;;1.90;;
8480;SDS011;4277;51.354;6.740;2022-08-02T11:39:37;2.78;;;1.70;;
8480;SDS011;4277;51.354;6.740;2022-08-02T11:42:03;2.50;;;1.70;;
8480;SDS011;4277;51.354;6.740;2022-08-02T11:44:29;2.53;;;1.70;;
8480;SDS011;4277;51.354;6.740;2022-08-02T11:47:04;1.80;;;1.70;;
8480;SDS011;4277;51.354;6.740;2022-08-02T11:49:31;1.80;;;1.70;;
8480;SDS011;4277;51.354;6.740;2022-08-02T11:51:58;3.28;;;1.70;;
8480;SDS011;4277;51.354;6.740;2022-08-02T11:54:33;2.72;;;1.80;;
8480;SDS011;4277;51.354;6.740;2022-08-02T11:57:21;3.75;;;1.90;;
8480;SDS011;4277;51.354;6.740;2022-08-02T11:59:53;1.88;;;1.73;;
8480;SDS011;4277;51.354;6.740;2022-08-02T12:02:20;2.50;;;1.70;;
8480;SDS011;4277;51.354;6.740;2022-08-02T12:04:52;3.45;;;1.50;;
8480;SDS011;4277;51.354;6.740;2022-08-02T12:07:24;4.47;;;1.70;;
8480;SDS011;4277;51.354;6.740;2022-08-02T12:10:08;1.77;;;1.67;;
8480;SDS011;4277;51.354;6.740;2022-08-02T12:15:35;3.70;;;1.73;;
8480;SDS011;4277;51.354;6.740;2022-08-02T12:18:07;2.90;;;1.65;;
8480;SDS011;4277;51.354;6.740;2022-08-02T12:20:53;2.30;;;1.65;;
8480;SDS011;4277;51.354;6.740;2022-08-02T12:23:18;1.70;;;1.58;;
8480;SDS011;4277;51.354;6.740;2022-08-02T12:25:44;1.65;;;1.55;;
8480;SDS011;4277;51.354;6.740;2022-08-02T12:28:14;3.33;;;1.63;;
8480;SDS011;4277;51.354;6.740;2022-08-02T12:30:56;2.20;;;1.60;;
8480;SDS011;4277;51.354;6.740;2022-08-02T12:33:24;4.80;;;1.90;;
8480;SDS011;4277;51.354;6.740;2022-08-02T12:35:51;4.15;;;1.70;;
8480;SDS011;4277;51.354;6.740;2022-08-02T12:38:17;5.22;;;1.63;;
8480;SDS011;4277;51.354;6.740;2022-08-02T12:40:42;2.05;;;1.77;;
8480;SDS011;4277;51.354;6.740;2022-08-02T12:43:20;4.15;;;1.80;;
8480;SDS011;4277;51.354;6.740;2022-08-02T12:45:51;1.90;;;1.63;;
8480;SDS011;4277;51.354;6.740;2022-08-02T12:48:34;2.60;;;1.90;;
8480;SDS011;4277;51.354;6.740;2022-08-02T12:53:54;1.58;;;1.48;;
8480;SDS011;4277;51.354;6.740;2022-08-02T12:56:38;3.80;;;1.60;;
8480;SDS011;4277;51.354;6.740;2022-08-02T12:59:04;4.65;;;1.70;;
8480;SDS011;4277;51.354;6.740;2022-08-02T13:01:30;1.75;;;1.60;;
8480;SDS011;4277;51.354;6.740;2022-08-02T13:03:56;4.72;;;1.60;;
8480;SDS011;4277;51.354;6.740;2022-08-02T13:06:23;3.75;;;1.70;;
8480;SDS011;4277;51.354;6.740;2022-08-02T13:08:49;3.90;;;1.50;;
8480;SDS011;4277;51.354;6.740;2022-08-02T13:11:15;3.25;;;1.67;;
8480;SDS011;4277;51.354;6.740;2022-08-02T13:13:41;2.90;;;1.85;;
8480;SDS011;4277;51.354;6.740;2022-08-02T13:16:08;2.70;;;1.60;;
8480;SDS011;4277;51.354;6.740;2022-08-02T13:18:34;3.60;;;1.70;;
8480;SDS011;4277;51.354;6.740;2022-08-02T13:20:59;1.80;;;1.70;;
8480;SDS011;4277;51.354;6.740;2022-08-02T13:23:25;4.68;;;1.80;;
8480;SDS011;4277;51.354;6.740;2022-08-02T13:25:51;4.15;;;1.65;;
8480;SDS011;4277;51.354;6.740;2022-08-02T13:28:18;4.47;;;1.70;;
8480;SDS011;4277;51.354;6.740;2022-08-02T13:30:45;1.80;;;1.70;;
8480;SDS011;4277;51.354;6.740;2022-08-02T13:33:11;2.17;;;1.83;;
8480;SDS011;4277;51.354;6.740;2022-08-02T13:35:37;2.13;;;1.70;;
8480;SDS011;4277;51.354;6.740;2022-08-02T13:38:03;3.42;;;1.60;;
8480;SDS011;4277;51.354;6.740;2022-08-02T13:40:30;2.38;;;1.77;;
8480;SDS011;4277;51.354;6.740;2022-08-02T13:42:56;2.08;;;1.52;;
8480;SDS011;4277;51.354;6.740;2022-08-02T13:45:21;3.03;;;1.50;;
8480;SDS011;4277;51.354;6.740;2022-08-02T13:47:47;1.98;;;1.58;;
8480;SDS011;4277;51.354;6.740;2022-08-02T13:50:13;1.80;;;1.50;;
8480;SDS011;4277;51.354;6.740;2022-08-02T13:52:39;2.78;;;1.90;;
8480;SDS011;4277;51.354;6.740;2022-08-02T13:55:05;1.80;;;1.50;;
8480;SDS011;4277;51.354;6.740;2022-08-02T13:57:31;4.95;;;1.70;;
8480;SDS011;4277;51.354;6.740;2022-08-02T13:59:56;2.65;;;1.77;;
8480;SDS011;4277;51.354;6.740;2022-08-02T14:02:22;2.45;;;1.63;;
8480;SDS011;4277;51.354;6.740;2022-08-02T14:04:48;2.35;;;1.70;;
8480;SDS011;4277;51.354;6.740;2022-08-02T14:07:13;2.55;;;1.77;;
8480;SDS011;4277;51.354;6.740;2022-08-02T14:09:40;4.45;;;1.50;;
8480;SDS011;4277;51.354;6.740;2022-08-02T14:12:07;1.75;;;1.48;;
8480;SDS011;4277;51.354;6.740;2022-08-02T14:14:34;2.88;;;1.50;;
8480;SDS011;4277;51.354;6.740;2022-08-02T14:16:59;2.53;;;1.70;;
8480;SDS011;4277;51.354;6.740;2022-08-02T14:19:25;3.75;;;1.92;;
8480;SDS011;4277;51.354;6.740;2022-08-02T14:21:50;2.08;;;1.50;;
8480;SDS011;4277;51.354;6.740;2022-08-02T14:24:16;2.75;;;1.60;;
8480;SDS011;4277;51.354;6.740;2022-08-02T14:26:44;5.88;;;1.52;;
8480;SDS011;4277;51.354;6.740;2022-08-02T14:29:10;1.85;;;1.60;;
8480;SDS011;4277;51.354;6.740;2022-08-02T14:31:36;1.80;;;1.50;;
8480;SDS011;4277;51.354;6.740;2022-08-02T14:34:02;3.63;;;1.58;;
8480;SDS011;4277;51.354;6.740;2022-08-02T14:36:27;1.83;;;1.40;;
8480;SDS011;4277;51.354;6.740;2022-08-02T14:38:54;3.00;;;1.80;;
8480;SDS011;4277;51.354;6.740;2022-08-02T14:41:20;5.03;;;1.58;;
8480;SDS011;4277;51.354;6.740;2022-08-02T14:43:45;4.50;;;1.80;;
8480;SDS011;4277;51.354;6.740;2022-08-02T14:46:34;3.28;;;1.50;;
8480;SDS011;4277;51.354;6.740;2022-08-02T14:49:01;3.28;;;1.60;;
8480;SDS011;4277;51.354;6.740;2022-08-02T14:51:30;2.58;;;1.50;;
8480;SDS011;4277;51.354;6.740;2022-08-02T14:53:57;2.22;;;1.42;;
8480;SDS011;4277;51.354;6.740;2022-08-02T14:56:26;4.70;;;1.50;;
8480;SDS011;4277;51.354;6.740;2022-08-02T14:58:52;2.72;;;1.27;;
8480;SDS011;4277;51.354;6.740;2022-08-02T15:01:18;3.38;;;1.10;;
8480;SDS011;4277;51.354;6.740;2022-08-02T15:03:44;4.72;;;1.30;;
8480;SDS011;4277;51.354;6.740;2022-08-02T15:06:10;1.33;;;1.10;;
8480;SDS011;4277;51.354;6.740;2022-08-02T15:08:35;4.18;;;1.25;;
8480;SDS011;4277;51.354;6.740;2022-08-02T15:11:01;1.73;;;1.10;;
8480;SDS011;4277;51.354;6.740;2022-08-02T15:13:26;1.40;;;1.13;;
8480;SDS011;4277;51.354;6.740;2022-08-02T15:15:52;3.28;;;1.17;;
8480;SDS011;4277;51.354;6.740;2022-08-02T15:18:18;2.15;;;1.30;;
8480;SDS011;4277;51.354;6.740;2022-08-02T15:20:43;1.92;;;1.27;;
8480;SDS011;4277;51.354;6.740;2022-08-02T15:23:10;1.38;;;1.20;;
8480;SDS011;4277;51.354;6.740;2022-08-02T15:25:39;2.65;;;1.30;;
8480;SDS011;4277;51.354;6.740;2022-08-02T15:28:05;3.80;;;1.10;;
8480;SDS011;4277;51.354;6.740;2022-08-02T15:30:32;1.15;;;1.08;;
8480;SDS011;4277;51.354;6.740;2022-08-02T15:32:58;1.40;;;1.30;;
8480;SDS011;4277;51.354;6.740;2022-08-02T15:35:23;2.53;;;1.20;;
8480;SDS011;4277;51.354;6.740;2022-08-02T15:37:49;2.38;;;1.20;;
8480;SDS011;4277;51.354;6.740;2022-08-02T15:40:14;1.52;;;1.40;;
8480;SDS011;4277;51.354;6.740;2022-08-02T15:42:40;2.70;;;1.40;;
8480;SDS011;4277;51.354;6.740;2022-08-02T15:45:07;2.03;;;1.20;;
8480;SDS011;4277;51.354;6.740;2022-08-02T15:47:33;4.40;;;1.38;;
8480;SDS011;4277;51.354;6.740;2022-08-02T15:49:59;1.50;;;1.40;;
8480;SDS011;4277;51.354;6.740;2022-08-02T15:52:24;2.55;;;1.38;;
8480;SDS011;4277;51.354;6.740;2022-08-02T15:54:50;1.73;;;1.52;;
8480;SDS011;4277;51.354;6.740;2022-08-02T15:57:16;2.70;;;1.40;;
8480;SDS011;4277;51.354;6.740;2022-08-02T15:59:42;2.67;;;1.30;;